createdAt,value
2023-05-23T00:01:40.140Z,12.27
2023-05-23T00:04:07.784Z,12.23
2023-05-23T00:06:36.503Z,12.22
2023-05-23T00:09:04.246Z,12.02
2023-05-23T00:11:32.699Z,12.04
2023-05-23T00:14:01.509Z,12.09
2023-05-23T00:16:28.923Z,12.07
2023-05-23T00:18:57.996Z,12.14
2023-05-23T00:21:25.688Z,12.20
2023-05-23T00:23:54.164Z,12.21
2023-05-23T00:26:24.449Z,12.18
2023-05-23T00:28:51.547Z,12.09
2023-05-23T00:31:20.017Z,12.09
2023-05-23T00:33:47.434Z,12.12
2023-05-23T00:36:15.243Z,12.14
2023-05-23T00:38:49.771Z,11.81
2023-05-23T00:41:18.906Z,11.55
2023-05-23T00:43:45.950Z,11.47
2023-05-23T00:46:14.074Z,11.26
2023-05-23T00:48:41.536Z,11.20
2023-05-23T00:51:09.033Z,11.27
2023-05-23T00:53:37.641Z,11.40
2023-05-23T00:56:05.032Z,11.40
2023-05-23T00:58:34.372Z,11.38
2023-05-23T01:03:45.969Z,11.39
2023-05-23T01:06:13.263Z,11.36
2023-05-23T01:08:43.136Z,11.29
2023-05-23T01:11:30.210Z,11.29
2023-05-23T01:14:22.634Z,11.25
2023-05-23T01:16:58.623Z,11.31
2023-05-23T01:19:51.523Z,11.24
2023-05-23T01:22:55.797Z,10.92
2023-05-23T01:25:41.966Z,10.92
2023-05-23T01:28:12.886Z,11.01
2023-05-23T01:30:42.410Z,11.11
2023-05-23T01:33:12.848Z,11.13
2023-05-23T01:35:44.093Z,11.18
2023-05-23T01:38:11.394Z,11.22
2023-05-23T01:40:39.578Z,11.20
2023-05-23T01:43:07.262Z,11.07
2023-05-23T01:45:37.772Z,10.96
2023-05-23T01:48:06.619Z,10.97
2023-05-23T01:50:34.470Z,10.92
2023-05-23T01:53:03.205Z,10.89
2023-05-23T01:55:31.481Z,10.80
2023-05-23T01:58:06.949Z,10.40
2023-05-23T02:00:36.564Z,10.28
2023-05-23T02:03:04.642Z,10.39
2023-05-23T02:05:31.766Z,10.46
2023-05-23T02:07:59.217Z,10.45
2023-05-23T02:10:26.790Z,10.61
2023-05-23T02:12:54.117Z,10.61
2023-05-23T02:15:21.694Z,10.65
2023-05-23T02:17:48.866Z,10.63
2023-05-23T02:20:16.192Z,10.63
2023-05-23T02:22:49.706Z,10.57
2023-05-23T02:25:17.143Z,10.65
2023-05-23T02:27:44.544Z,10.67
2023-05-23T02:30:13.363Z,10.66
2023-05-23T02:32:47.855Z,10.56
2023-05-23T02:35:15.553Z,10.50
2023-05-23T02:37:43.020Z,10.51
2023-05-23T02:40:10.841Z,10.45
2023-05-23T02:42:37.985Z,10.38
2023-05-23T02:45:05.749Z,10.40
2023-05-23T02:47:33.031Z,10.19
2023-05-23T02:50:00.348Z,9.68
2023-05-23T02:52:27.858Z,9.80
2023-05-23T02:54:55.338Z,9.94
2023-05-23T02:57:23.790Z,9.99
2023-05-23T02:59:51.378Z,10.13
2023-05-23T03:02:18.447Z,10.03
2023-05-23T03:04:48.555Z,9.80
2023-05-23T03:07:27.684Z,9.71
2023-05-23T03:09:56.524Z,9.55
2023-05-23T03:12:28.397Z,9.34
2023-05-23T03:14:56.176Z,9.29
2023-05-23T03:17:29.612Z,9.24
2023-05-23T03:19:57.067Z,9.17
2023-05-23T03:22:24.560Z,9.34
2023-05-23T03:24:53.308Z,9.52
2023-05-23T03:27:21.023Z,9.38
2023-05-23T03:29:48.716Z,9.27
2023-05-23T03:32:16.560Z,9.52
2023-05-23T03:34:49.975Z,9.69
2023-05-23T03:37:17.571Z,9.84
2023-05-23T03:39:46.043Z,9.88
2023-05-23T03:42:13.379Z,10.00
2023-05-23T03:44:42.891Z,10.09
2023-05-23T03:47:10.478Z,9.82
2023-05-23T03:49:39.020Z,9.69
2023-05-23T03:52:08.534Z,9.80
2023-05-23T03:54:35.802Z,10.02
2023-05-23T03:57:04.517Z,10.23
2023-05-23T03:59:31.744Z,10.43
2023-05-23T04:01:59.829Z,10.53
2023-05-23T04:04:30.531Z,10.78
2023-05-23T04:06:59.635Z,10.91
2023-05-23T04:09:26.824Z,11.01
2023-05-23T04:11:54.327Z,11.14
2023-05-23T04:14:24.680Z,11.23
2023-05-23T04:16:52.285Z,11.32
2023-05-23T04:19:20.115Z,11.43
2023-05-23T04:21:47.703Z,11.53
2023-05-23T04:24:22.042Z,11.63
2023-05-23T04:26:50.163Z,11.79
2023-05-23T04:29:17.440Z,11.93
2023-05-23T04:31:46.545Z,12.03
2023-05-23T04:34:14.679Z,12.20
2023-05-23T04:36:44.945Z,12.32
2023-05-23T04:39:12.186Z,12.45
2023-05-23T04:41:40.462Z,12.62
2023-05-23T04:44:07.664Z,12.75
2023-05-23T04:46:34.970Z,12.82
2023-05-23T04:49:04.440Z,12.96
2023-05-23T04:51:32.237Z,13.08
2023-05-23T04:53:59.690Z,13.24
2023-05-23T04:56:28.667Z,13.32
2023-05-23T04:58:57.036Z,13.41
2023-05-23T05:01:26.875Z,13.47
2023-05-23T05:03:54.692Z,13.58
2023-05-23T05:06:22.087Z,13.72
2023-05-23T05:08:49.512Z,13.83
2023-05-23T05:11:19.167Z,13.91
2023-05-23T05:13:46.813Z,13.99
2023-05-23T05:16:14.364Z,14.13
2023-05-23T05:18:42.826Z,14.20
2023-05-23T05:21:10.229Z,14.30
2023-05-23T05:23:41.564Z,14.52
2023-05-23T05:26:09.081Z,14.50
2023-05-23T05:28:36.891Z,14.58
2023-05-23T05:31:05.719Z,14.56
2023-05-23T05:33:36.701Z,14.65
2023-05-23T05:36:05.507Z,14.63
2023-05-23T05:38:34.606Z,14.83
2023-05-23T05:41:09.262Z,14.79
2023-05-23T05:43:36.884Z,15.03
2023-05-23T05:46:04.379Z,15.12
2023-05-23T05:48:32.761Z,15.07
2023-05-23T05:51:03.500Z,15.05
2023-05-23T05:53:32.461Z,15.21
2023-05-23T05:56:01.049Z,15.29
2023-05-23T05:58:28.316Z,15.33
2023-05-23T06:00:59.568Z,15.42
2023-05-23T06:03:28.912Z,15.48
2023-05-23T06:05:56.886Z,15.57
2023-05-23T06:08:32.441Z,15.77
2023-05-23T06:10:59.858Z,15.82
2023-05-23T06:13:29.951Z,15.95
2023-05-23T06:15:58.907Z,16.04
2023-05-23T06:18:26.764Z,16.15
2023-05-23T06:20:54.983Z,16.10
2023-05-23T06:23:23.465Z,16.14
2023-05-23T06:25:53.659Z,16.34
2023-05-23T06:28:21.493Z,16.53
2023-05-23T06:30:48.776Z,16.70
2023-05-23T06:33:16.952Z,16.92
2023-05-23T06:35:54.757Z,17.14
2023-05-23T06:38:22.853Z,17.21
2023-05-23T06:40:50.480Z,17.16
2023-05-23T06:43:18.918Z,17.33
2023-05-23T06:45:53.412Z,17.48
2023-05-23T06:48:21.082Z,17.69
2023-05-23T06:50:50.070Z,17.72
2023-05-23T06:53:19.438Z,17.85
2023-05-23T06:55:46.889Z,18.01
2023-05-23T06:58:15.078Z,17.95
2023-05-23T07:00:42.618Z,18.12
2023-05-23T07:03:11.881Z,18.22
2023-05-23T07:05:41.377Z,18.38
2023-05-23T07:08:11.704Z,18.51
2023-05-23T07:10:42.139Z,18.68
2023-05-23T07:13:11.124Z,18.84
2023-05-23T07:15:38.292Z,19.05
2023-05-23T07:18:05.880Z,19.18
2023-05-23T07:20:41.572Z,19.36
2023-05-23T07:23:09.516Z,19.57
2023-05-23T07:25:47.037Z,19.62
2023-05-23T07:28:21.981Z,19.81
2023-05-23T07:30:49.199Z,19.98
2023-05-23T07:33:17.199Z,20.17
2023-05-23T07:35:47.406Z,20.19
2023-05-23T07:38:14.668Z,20.16
2023-05-23T07:40:43.236Z,20.29
2023-05-23T07:43:10.974Z,20.38
2023-05-23T07:45:38.539Z,20.57
2023-05-23T07:48:07.069Z,20.69
2023-05-23T07:50:34.454Z,20.82
2023-05-23T07:53:02.294Z,20.88
2023-05-23T07:55:31.404Z,20.99
2023-05-23T07:58:06.658Z,21.21
2023-05-23T08:00:35.183Z,21.30
2023-05-23T08:03:02.659Z,21.31
2023-05-23T08:05:30.535Z,21.56
2023-05-23T08:07:57.911Z,21.52
2023-05-23T08:10:28.652Z,21.69
2023-05-23T08:12:56.217Z,21.88
2023-05-23T08:15:24.671Z,22.08
2023-05-23T08:17:57.364Z,21.87
2023-05-23T08:20:31.147Z,21.52
2023-05-23T08:23:00.068Z,21.53
2023-05-23T08:25:33.096Z,21.61
2023-05-23T08:28:02.439Z,21.92
2023-05-23T08:30:30.453Z,22.26
2023-05-23T08:32:58.629Z,22.45
2023-05-23T08:35:26.114Z,22.38
2023-05-23T08:37:53.518Z,22.46
2023-05-23T08:40:23.033Z,22.18
2023-05-23T08:42:51.654Z,22.47
2023-05-23T08:45:22.177Z,22.88
2023-05-23T08:47:52.818Z,23.18
2023-05-23T08:50:22.884Z,23.35
2023-05-23T08:52:58.733Z,23.68
2023-05-23T08:55:28.085Z,23.95
2023-05-23T08:57:58.204Z,23.97
2023-05-23T09:00:26.991Z,24.24
2023-05-23T09:02:55.183Z,24.47
2023-05-23T09:05:27.603Z,24.81
2023-05-23T09:07:55.418Z,25.01
2023-05-23T09:10:22.948Z,24.92
2023-05-23T09:12:50.774Z,25.35
2023-05-23T09:15:19.005Z,25.63
2023-05-23T09:17:47.365Z,25.87
2023-05-23T09:20:17.854Z,26.14
2023-05-23T09:22:49.161Z,26.48
2023-05-23T09:25:17.595Z,26.14
2023-05-23T09:27:47.842Z,26.17
2023-05-23T09:30:16.323Z,26.03
2023-05-23T09:32:45.078Z,26.07
2023-05-23T09:35:14.536Z,25.92
2023-05-23T09:37:47.222Z,25.75
2023-05-23T09:40:16.786Z,25.52
2023-05-23T09:42:48.998Z,25.29
2023-05-23T09:45:18.891Z,25.52
2023-05-23T09:47:53.885Z,25.79
2023-05-23T09:50:21.990Z,26.00
2023-05-23T09:52:51.556Z,26.21
2023-05-23T09:55:20.341Z,26.21
2023-05-23T09:57:54.885Z,26.02
2023-05-23T10:00:23.854Z,25.14
2023-05-23T10:03:15.640Z,24.05
2023-05-23T10:05:53.714Z,23.09
2023-05-23T10:08:36.851Z,21.26
2023-05-23T10:11:17.293Z,19.93
2023-05-23T10:13:47.499Z,18.86
2023-05-23T10:16:50.235Z,18.56
2023-05-23T10:19:34.578Z,17.91
2023-05-23T10:22:05.528Z,17.71
2023-05-23T10:24:36.072Z,17.64
2023-05-23T10:27:03.921Z,17.34
2023-05-23T10:29:38.158Z,16.89
2023-05-23T10:32:08.509Z,16.71
2023-05-23T10:34:54.957Z,16.71
2023-05-23T10:37:55.150Z,16.69
2023-05-23T10:40:29.299Z,16.80
2023-05-23T10:43:08.589Z,16.81
2023-05-23T10:45:45.747Z,16.96
2023-05-23T10:48:33.279Z,17.18
2023-05-23T10:51:11.596Z,17.20
2023-05-23T10:53:44.424Z,17.38
2023-05-23T10:56:24.300Z,17.55
2023-05-23T10:58:55.991Z,17.69
2023-05-23T11:01:25.787Z,17.83
2023-05-23T11:03:56.227Z,17.88
2023-05-23T11:06:39.407Z,17.77
2023-05-23T11:09:21.926Z,17.58
2023-05-23T11:11:53.282Z,17.47
2023-05-23T11:14:31.950Z,17.69
2023-05-23T11:17:18.112Z,17.39
2023-05-23T11:20:08.268Z,17.51
2023-05-23T11:22:36.739Z,17.56
2023-05-23T11:25:12.213Z,17.83
2023-05-23T11:27:42.297Z,17.78
2023-05-23T11:30:17.817Z,17.67
2023-05-23T11:32:53.382Z,17.71
2023-05-23T11:35:25.268Z,17.83
2023-05-23T11:37:53.328Z,18.06
2023-05-23T11:40:38.243Z,18.26
2023-05-23T11:43:07.725Z,18.41
2023-05-23T11:45:36.694Z,18.51
2023-05-23T11:48:10.532Z,18.59
2023-05-23T11:50:48.169Z,18.61
2023-05-23T11:53:21.162Z,18.56
2023-05-23T11:55:55.593Z,18.69
2023-05-23T11:58:26.597Z,18.82
2023-05-23T12:01:15.204Z,18.87
2023-05-23T12:03:47.337Z,18.81
2023-05-23T12:06:25.253Z,18.73
2023-05-23T12:08:53.184Z,18.87
2023-05-23T12:11:20.861Z,18.98
2023-05-23T12:13:50.433Z,19.03
2023-05-23T12:16:19.708Z,19.35
2023-05-23T12:18:47.498Z,19.77
2023-05-23T12:21:17.100Z,20.14
2023-05-23T12:23:45.527Z,20.49
2023-05-23T12:26:13.012Z,20.79
2023-05-23T12:28:50.842Z,21.03
2023-05-23T12:31:22.141Z,21.19
2023-05-23T12:33:53.245Z,21.44
2023-05-23T12:36:26.735Z,21.74
2023-05-23T12:38:54.914Z,21.97
2023-05-23T12:41:25.482Z,22.22
2023-05-23T12:43:57.362Z,22.50
2023-05-23T12:46:26.943Z,22.92
2023-05-23T12:48:55.128Z,23.39
2023-05-23T12:51:23.518Z,23.66
2023-05-23T12:53:52.049Z,23.83
2023-05-23T12:56:21.378Z,23.77
2023-05-23T12:58:49.531Z,23.45
2023-05-23T13:01:16.883Z,23.15
2023-05-23T13:03:45.403Z,23.17
2023-05-23T13:06:13.947Z,23.64
2023-05-23T13:08:43.706Z,24.07
2023-05-23T13:11:11.293Z,24.15
2023-05-23T13:13:40.794Z,24.50
2023-05-23T13:16:08.453Z,24.12
2023-05-23T13:18:36.893Z,24.01
2023-05-23T13:21:04.468Z,24.08
2023-05-23T13:23:31.809Z,23.88
2023-05-23T13:25:59.703Z,23.71
2023-05-23T13:28:27.410Z,23.66
2023-05-23T13:30:55.133Z,23.77
2023-05-23T13:33:23.933Z,23.59
2023-05-23T13:35:54.807Z,24.07
2023-05-23T13:38:23.012Z,24.15
2023-05-23T13:40:53.180Z,24.26
2023-05-23T13:43:20.814Z,24.42
2023-05-23T13:45:54.432Z,23.91
2023-05-23T13:48:21.894Z,24.38
2023-05-23T13:50:50.306Z,24.10
2023-05-23T13:53:17.856Z,24.85
2023-05-23T13:55:47.375Z,25.14
2023-05-23T13:58:16.839Z,25.23
2023-05-23T14:00:44.472Z,25.47
2023-05-23T14:03:12.353Z,25.78
2023-05-23T14:05:39.826Z,25.39
2023-05-23T14:08:07.384Z,25.13
2023-05-23T14:10:36.135Z,25.38
2023-05-23T14:13:07.244Z,25.38
2023-05-23T14:15:42.800Z,25.51
2023-05-23T14:18:16.523Z,25.10
2023-05-23T14:20:43.773Z,25.05
2023-05-23T14:23:11.406Z,24.43
2023-05-23T14:25:39.002Z,24.90
2023-05-23T14:28:06.748Z,25.30
2023-05-23T14:30:35.078Z,25.79
2023-05-23T14:33:02.845Z,25.25
2023-05-23T14:35:32.748Z,24.85
2023-05-23T14:38:00.232Z,25.01
2023-05-23T14:40:29.596Z,25.08
2023-05-23T14:42:57.038Z,24.50
2023-05-23T14:45:24.680Z,23.88
2023-05-23T14:47:52.057Z,23.52
2023-05-23T14:50:19.948Z,23.38
2023-05-23T14:52:47.390Z,23.52
2023-05-23T14:55:14.824Z,23.65
2023-05-23T14:57:42.394Z,23.87
2023-05-23T15:00:11.920Z,23.84
2023-05-23T15:02:39.508Z,23.99
2023-05-23T15:05:08.004Z,23.47
2023-05-23T15:07:36.365Z,23.59
2023-05-23T15:10:06.700Z,23.75
2023-05-23T15:12:35.270Z,23.36
2023-05-23T15:15:04.388Z,23.40
2023-05-23T15:17:38.062Z,23.19
2023-05-23T15:20:07.226Z,23.30
2023-05-23T15:22:38.585Z,23.36
2023-05-23T15:25:08.797Z,23.24
2023-05-23T15:27:37.596Z,23.42
2023-05-23T15:30:06.573Z,23.39
2023-05-23T15:32:34.092Z,23.45
2023-05-23T15:35:01.588Z,23.42
2023-05-23T15:37:28.859Z,23.43
2023-05-23T15:39:58.624Z,23.05
2023-05-23T15:42:25.786Z,22.86
2023-05-23T15:44:54.463Z,22.57
2023-05-23T15:47:22.968Z,22.68
2023-05-23T15:49:50.997Z,22.27
2023-05-23T15:52:18.393Z,22.01
2023-05-23T15:54:46.204Z,22.00
2023-05-23T15:57:14.048Z,21.57
2023-05-23T15:59:41.344Z,21.80
2023-05-23T16:02:09.508Z,21.70
2023-05-23T16:04:39.315Z,21.91
2023-05-23T16:07:06.839Z,21.96
2023-05-23T16:09:35.302Z,22.07
2023-05-23T16:12:02.642Z,22.19
2023-05-23T16:14:34.284Z,22.27
2023-05-23T16:17:03.584Z,22.31
2023-05-23T16:19:31.408Z,22.25
2023-05-23T16:21:58.983Z,22.30
2023-05-23T16:24:28.516Z,22.41
2023-05-23T16:26:55.728Z,22.27
2023-05-23T16:29:23.250Z,22.32
2023-05-23T16:31:51.668Z,22.22
2023-05-23T16:34:20.092Z,22.31
2023-05-23T16:36:47.546Z,22.24
2023-05-23T16:39:16.448Z,22.09
2023-05-23T16:41:44.076Z,21.97
2023-05-23T16:44:11.626Z,21.79
2023-05-23T16:46:39.139Z,21.72
2023-05-23T16:49:06.343Z,21.50
2023-05-23T16:51:33.908Z,21.20
2023-05-23T16:54:02.359Z,21.11
2023-05-23T16:56:31.818Z,20.77
2023-05-23T16:58:59.475Z,20.44
2023-05-23T17:01:29.785Z,20.41
2023-05-23T17:03:57.094Z,20.51
2023-05-23T17:06:24.370Z,20.60
2023-05-23T17:08:51.873Z,20.61
2023-05-23T17:11:19.308Z,20.55
2023-05-23T17:13:46.976Z,20.55
2023-05-23T17:16:18.785Z,20.65
2023-05-23T17:18:48.658Z,20.05
2023-05-23T17:21:16.164Z,19.92
2023-05-23T17:23:43.829Z,19.66
2023-05-23T17:26:12.185Z,19.93
2023-05-23T17:28:40.546Z,19.90
2023-05-23T17:31:08.123Z,19.72
2023-05-23T17:33:35.419Z,19.57
2023-05-23T17:36:03.048Z,19.58
2023-05-23T17:38:31.506Z,19.48
2023-05-23T17:40:59.185Z,19.51
2023-05-23T17:43:27.422Z,19.61
2023-05-23T17:45:56.212Z,19.74
2023-05-23T17:48:38.344Z,19.83
2023-05-23T17:51:13.620Z,19.69
2023-05-23T17:53:47.341Z,19.63
2023-05-23T17:56:14.452Z,19.54
2023-05-23T17:58:44.212Z,19.48
2023-05-23T18:01:12.362Z,19.37
2023-05-23T18:03:39.525Z,19.31
2023-05-23T18:06:07.162Z,19.15
2023-05-23T18:08:34.510Z,19.19
2023-05-23T18:11:03.061Z,19.38
2023-05-23T18:13:30.346Z,19.26
2023-05-23T18:15:58.056Z,19.32
2023-05-23T18:18:25.364Z,19.17
2023-05-23T18:20:53.027Z,19.05
2023-05-23T18:23:20.326Z,18.79
2023-05-23T18:25:48.523Z,18.52
2023-05-23T18:28:15.815Z,18.30
2023-05-23T18:30:43.372Z,18.14
2023-05-23T18:33:11.407Z,18.15
2023-05-23T18:35:39.083Z,18.01
2023-05-23T18:38:07.113Z,17.95
2023-05-23T18:40:34.602Z,18.05
2023-05-23T18:43:02.002Z,17.93
2023-05-23T18:45:29.578Z,17.90
2023-05-23T18:47:56.876Z,17.96
2023-05-23T18:50:24.627Z,18.15
2023-05-23T18:52:51.793Z,18.12
2023-05-23T18:55:20.599Z,17.94
2023-05-23T18:57:48.480Z,17.81
2023-05-23T19:00:17.219Z,17.61
2023-05-23T19:02:46.030Z,17.58
2023-05-23T19:05:14.013Z,17.40
2023-05-23T19:07:41.738Z,17.37
2023-05-23T19:10:22.942Z,17.36
2023-05-23T19:12:50.347Z,17.36
2023-05-23T19:15:19.938Z,17.20
2023-05-23T19:17:48.681Z,17.26
2023-05-23T19:20:20.406Z,17.25
2023-05-23T19:22:51.818Z,17.09
2023-05-23T19:25:22.072Z,17.09
2023-05-23T19:27:51.863Z,17.06
2023-05-23T19:30:19.612Z,17.01
2023-05-23T19:32:49.127Z,16.93
2023-05-23T19:35:22.753Z,16.92
2023-05-23T19:37:52.173Z,16.88
2023-05-23T19:40:23.725Z,16.81
2023-05-23T19:42:51.424Z,16.78
2023-05-23T19:45:25.918Z,16.77
2023-05-23T19:47:54.344Z,16.79
2023-05-23T19:50:24.173Z,16.74
2023-05-23T19:52:51.627Z,16.67
2023-05-23T19:55:19.196Z,16.65
2023-05-23T19:57:46.778Z,16.65
2023-05-23T20:00:15.321Z,16.63
2023-05-23T20:02:42.952Z,16.66
2023-05-23T20:05:10.547Z,16.66
2023-05-23T20:07:39.991Z,16.61
2023-05-23T20:10:08.893Z,16.62
2023-05-23T20:12:36.642Z,16.64
2023-05-23T20:15:10.274Z,16.70
2023-05-23T20:17:41.633Z,16.63
2023-05-23T20:20:09.413Z,16.83
2023-05-23T20:22:39.022Z,17.01
2023-05-23T20:25:06.822Z,17.02
2023-05-23T20:27:33.976Z,17.11
2023-05-23T20:30:01.486Z,17.06
2023-05-23T20:32:30.282Z,17.03
2023-05-23T20:34:57.889Z,17.00
2023-05-23T20:37:25.707Z,16.90
2023-05-23T20:39:53.303Z,16.90
2023-05-23T20:42:21.086Z,16.83
2023-05-23T20:44:48.399Z,16.69
2023-05-23T20:47:16.038Z,16.65
2023-05-23T20:49:44.586Z,16.65
2023-05-23T20:52:12.273Z,16.60
2023-05-23T20:54:39.592Z,16.60
2023-05-23T20:57:07.096Z,16.62
2023-05-23T20:59:34.708Z,16.55
2023-05-23T21:02:02.239Z,16.55
2023-05-23T21:04:30.743Z,16.34
2023-05-23T21:06:58.133Z,16.43
2023-05-23T21:09:26.398Z,16.38
2023-05-23T21:12:00.008Z,16.34
2023-05-23T21:14:27.410Z,16.14
2023-05-23T21:16:56.127Z,16.28
2023-05-23T21:19:35.931Z,16.24
2023-05-23T21:22:03.177Z,15.94
2023-05-23T21:24:30.615Z,15.78
2023-05-23T21:26:58.120Z,15.63
2023-05-23T21:29:25.568Z,15.62
2023-05-23T21:31:52.936Z,15.48
2023-05-23T21:34:24.294Z,15.33
2023-05-23T21:36:53.061Z,15.36
2023-05-23T21:39:22.561Z,15.29
2023-05-23T21:41:51.385Z,15.25
2023-05-23T21:44:21.566Z,15.28
2023-05-23T21:46:49.075Z,15.41
2023-05-23T21:49:16.740Z,15.55
2023-05-23T21:51:44.392Z,15.53
2023-05-23T21:54:11.974Z,15.48
2023-05-23T21:56:39.367Z,15.52
2023-05-23T21:59:06.889Z,15.80
2023-05-23T22:01:34.465Z,15.85
2023-05-23T22:04:02.072Z,15.93
2023-05-23T22:06:29.790Z,15.98
2023-05-23T22:08:59.472Z,16.03
2023-05-23T22:11:34.305Z,16.00
2023-05-23T22:14:02.060Z,15.94
2023-05-23T22:16:33.311Z,15.87
2023-05-23T22:19:02.393Z,15.82
2023-05-23T22:21:30.004Z,15.73
2023-05-23T22:23:58.084Z,15.72
2023-05-23T22:26:25.440Z,15.66
2023-05-23T22:28:54.965Z,15.63
2023-05-23T22:31:24.454Z,15.65
2023-05-23T22:33:57.896Z,15.66
2023-05-23T22:36:25.427Z,15.62
2023-05-23T22:38:52.909Z,15.63
2023-05-23T22:41:20.315Z,15.66
2023-05-23T22:43:48.013Z,15.66
2023-05-23T22:46:16.274Z,15.67
2023-05-23T22:48:43.655Z,15.69
2023-05-23T22:51:12.857Z,15.66
2023-05-23T22:53:41.695Z,15.68
2023-05-23T22:56:08.888Z,15.67
2023-05-23T22:58:36.114Z,15.69
2023-05-23T23:01:03.611Z,15.68
2023-05-23T23:03:32.131Z,15.68
2023-05-23T23:06:00.608Z,15.67
2023-05-23T23:08:28.964Z,15.63
2023-05-23T23:10:58.461Z,15.60
2023-05-23T23:13:25.952Z,15.61
2023-05-23T23:15:53.583Z,15.58
2023-05-23T23:18:22.909Z,15.53
2023-05-23T23:20:51.524Z,15.54
2023-05-23T23:23:18.857Z,15.59
2023-05-23T23:25:50.390Z,15.61
2023-05-23T23:28:18.141Z,15.61
2023-05-23T23:30:47.574Z,15.61
2023-05-23T23:33:15.188Z,15.63
2023-05-23T23:35:48.837Z,15.63
2023-05-23T23:38:17.296Z,15.64
2023-05-23T23:40:45.928Z,15.61
2023-05-23T23:43:13.900Z,15.57
2023-05-23T23:45:41.460Z,15.56
2023-05-23T23:48:10.868Z,15.58
2023-05-23T23:50:38.309Z,15.61
2023-05-23T23:53:05.773Z,15.59
2023-05-23T23:55:39.367Z,15.58
2023-05-23T23:58:06.729Z,15.57
